createdAt,value
2023-01-05T00:01:53.771Z,55.06
2023-01-05T00:04:21.879Z,55.17
2023-01-05T00:06:49.701Z,55.19
2023-01-05T00:09:19.196Z,55.42
2023-01-05T00:12:05.389Z,55.51
2023-01-05T00:14:52.972Z,55.52
2023-01-05T00:17:42.365Z,55.42
2023-01-05T00:20:40.214Z,55.51
2023-01-05T00:23:09.142Z,55.72
2023-01-05T00:25:40.281Z,56.06
2023-01-05T00:28:08.575Z,55.97
2023-01-05T00:30:45.912Z,55.89
2023-01-05T00:33:16.995Z,55.81
2023-01-05T00:35:44.966Z,55.81
2023-01-05T00:38:12.920Z,56.02
2023-01-05T00:40:40.822Z,55.92
2023-01-05T00:43:08.649Z,56.14
2023-01-05T00:45:36.485Z,56.27
2023-01-05T00:48:04.713Z,56.19
2023-01-05T00:50:32.543Z,56.19
2023-01-05T00:53:02.291Z,56.37
2023-01-05T00:55:30.024Z,56.73
2023-01-05T00:57:57.863Z,56.46
2023-01-05T01:00:25.665Z,56.32
2023-01-05T01:02:53.493Z,56.35
2023-01-05T01:05:21.462Z,56.32
2023-01-05T01:07:49.777Z,56.16
2023-01-05T01:10:17.866Z,56.19
2023-01-05T01:12:45.619Z,56.24
2023-01-05T01:15:13.411Z,56.22
2023-01-05T01:17:43.126Z,56.08
2023-01-05T01:20:11.111Z,56.10
2023-01-05T01:22:38.905Z,56.01
2023-01-05T01:25:08.913Z,55.92
2023-01-05T01:27:36.785Z,55.77
2023-01-05T01:30:05.516Z,56.36
2023-01-05T01:32:33.226Z,56.29
2023-01-05T01:35:02.292Z,56.49
2023-01-05T01:37:30.143Z,56.19
2023-01-05T01:39:58.660Z,56.29
2023-01-05T01:42:26.928Z,56.32
2023-01-05T01:45:13.960Z,56.47
2023-01-05T01:47:53.999Z,56.33
2023-01-05T01:50:27.907Z,56.48
2023-01-05T01:53:06.555Z,56.60
2023-01-05T01:55:36.233Z,56.52
2023-01-05T01:58:08.369Z,56.42
2023-01-05T02:00:36.130Z,56.58
2023-01-05T02:03:05.943Z,56.38
2023-01-05T02:05:34.654Z,56.60
2023-01-05T02:08:02.704Z,56.30
2023-01-05T02:10:51.739Z,56.73
2023-01-05T02:13:37.330Z,56.52
2023-01-05T02:16:46.618Z,56.30
2023-01-05T02:19:42.958Z,56.06
2023-01-05T02:23:16.394Z,56.37
2023-01-05T02:26:12.118Z,56.47
2023-01-05T02:29:04.013Z,55.93
2023-01-05T02:31:53.711Z,55.92
2023-01-05T02:34:49.968Z,55.89
2023-01-05T02:37:52.811Z,55.79
2023-01-05T02:40:39.341Z,55.89
2023-01-05T02:43:09.854Z,56.31
2023-01-05T02:45:37.693Z,56.52
2023-01-05T02:48:05.677Z,56.77
2023-01-05T02:50:49.658Z,56.27
2023-01-05T02:53:32.967Z,56.45
2023-01-05T02:56:09.053Z,55.97
2023-01-05T02:58:58.209Z,55.94
2023-01-05T03:01:41.779Z,55.79
2023-01-05T03:04:19.795Z,55.55
2023-01-05T03:06:58.479Z,56.29
2023-01-05T03:09:36.862Z,56.26
2023-01-05T03:12:53.415Z,56.00
2023-01-05T03:15:32.926Z,55.88
2023-01-05T03:18:07.356Z,56.42
2023-01-05T03:20:44.035Z,55.96
2023-01-05T03:23:34.379Z,55.92
2023-01-05T03:26:20.838Z,56.01
2023-01-05T03:29:14.941Z,56.08
2023-01-05T03:32:14.776Z,56.03
2023-01-05T03:35:18.148Z,55.63
2023-01-05T03:37:59.715Z,56.08
2023-01-05T03:40:32.242Z,55.81
2023-01-05T03:43:01.212Z,55.88
2023-01-05T03:45:46.010Z,55.56
2023-01-05T03:48:22.182Z,55.53
2023-01-05T03:50:50.453Z,55.77
2023-01-05T03:53:20.233Z,55.89
2023-01-05T03:55:48.040Z,55.99
2023-01-05T03:58:15.854Z,56.44
2023-01-05T04:00:48.000Z,56.32
2023-01-05T04:03:19.080Z,56.31
2023-01-05T04:05:47.162Z,56.63
2023-01-05T04:08:16.926Z,56.58
2023-01-05T04:10:45.342Z,56.46
2023-01-05T04:13:14.759Z,56.67
2023-01-05T04:15:44.168Z,56.70
2023-01-05T04:18:12.843Z,56.49
2023-01-05T04:20:40.652Z,56.79
2023-01-05T04:23:09.085Z,56.79
2023-01-05T04:25:37.476Z,56.83
2023-01-05T04:28:15.971Z,57.31
2023-01-05T04:30:45.242Z,57.48
2023-01-05T04:33:13.739Z,57.18
2023-01-05T04:35:41.648Z,57.25
2023-01-05T04:38:09.756Z,57.33
2023-01-05T04:40:37.762Z,57.12
2023-01-05T04:43:06.599Z,57.90
2023-01-05T04:45:35.242Z,58.46
2023-01-05T04:48:03.445Z,58.21
2023-01-05T04:50:31.697Z,58.84
2023-01-05T04:52:59.917Z,58.63
2023-01-05T04:55:30.271Z,58.54
2023-01-05T04:57:59.633Z,59.01
2023-01-05T05:00:28.518Z,60.14
2023-01-05T05:02:56.332Z,60.06
2023-01-05T05:05:24.175Z,59.39
2023-01-05T05:07:54.945Z,59.83
2023-01-05T05:10:27.940Z,60.25
2023-01-05T05:12:55.914Z,60.96
2023-01-05T05:15:24.411Z,63.00
2023-01-05T05:17:52.204Z,61.15
2023-01-05T05:20:20.002Z,60.81
2023-01-05T05:22:49.050Z,61.28
2023-01-05T05:25:19.388Z,61.31
2023-01-05T05:27:49.035Z,61.80
2023-01-05T05:30:16.946Z,61.44
2023-01-05T05:32:44.827Z,61.07
2023-01-05T05:35:12.603Z,61.51
2023-01-05T05:37:40.358Z,61.54
2023-01-05T05:40:09.108Z,62.05
2023-01-05T05:42:36.841Z,61.47
2023-01-05T05:45:05.380Z,61.37
2023-01-05T05:47:33.194Z,61.69
2023-01-05T05:50:00.942Z,62.36
2023-01-05T05:52:28.725Z,62.87
2023-01-05T05:54:56.614Z,62.25
2023-01-05T05:57:24.374Z,62.19
2023-01-05T05:59:52.128Z,62.50
2023-01-05T06:02:19.994Z,62.57
2023-01-05T06:04:47.880Z,61.51
2023-01-05T06:07:15.692Z,62.22
2023-01-05T06:09:43.428Z,61.56
2023-01-05T06:12:11.259Z,62.82
2023-01-05T06:14:39.173Z,61.76
2023-01-05T06:17:06.889Z,61.50
2023-01-05T06:19:34.652Z,61.51
2023-01-05T06:22:02.404Z,61.34
2023-01-05T06:24:30.087Z,60.93
2023-01-05T06:26:57.948Z,60.72
2023-01-05T06:29:25.682Z,60.32
2023-01-05T06:31:53.470Z,60.18
2023-01-05T06:34:21.230Z,60.35
2023-01-05T06:36:49.023Z,61.00
2023-01-05T06:39:16.818Z,60.79
2023-01-05T06:41:44.534Z,60.74
2023-01-05T06:44:12.360Z,60.76
2023-01-05T06:46:41.024Z,60.38
2023-01-05T06:49:12.243Z,60.14
2023-01-05T06:51:40.497Z,59.93
2023-01-05T06:54:08.650Z,60.68
2023-01-05T06:56:36.669Z,60.97
2023-01-05T06:59:04.874Z,61.31
2023-01-05T07:01:32.898Z,60.97
2023-01-05T07:04:00.925Z,62.37
2023-01-05T07:06:28.828Z,62.48
2023-01-05T07:08:57.014Z,61.70
2023-01-05T07:11:25.089Z,61.43
2023-01-05T07:13:52.913Z,60.70
2023-01-05T07:16:20.746Z,60.90
2023-01-05T07:18:49.390Z,60.33
2023-01-05T07:21:17.452Z,60.22
2023-01-05T07:23:46.511Z,60.88
2023-01-05T07:26:15.118Z,61.30
2023-01-05T07:28:43.034Z,61.28
2023-01-05T07:31:10.836Z,62.25
2023-01-05T07:33:40.252Z,61.13
2023-01-05T07:36:08.835Z,60.64
2023-01-05T07:38:36.684Z,60.21
2023-01-05T07:41:04.599Z,59.75
2023-01-05T07:43:32.374Z,59.77
2023-01-05T07:46:01.796Z,59.20
2023-01-05T07:48:30.061Z,59.00
2023-01-05T07:51:05.676Z,59.13
2023-01-05T07:53:43.895Z,58.87
2023-01-05T07:56:13.732Z,59.12
2023-01-05T07:58:41.919Z,59.20
2023-01-05T08:01:12.995Z,58.79
2023-01-05T08:03:41.532Z,58.07
2023-01-05T08:06:19.076Z,58.13
2023-01-05T08:08:47.991Z,58.14
2023-01-05T08:11:18.435Z,57.91
2023-01-05T08:14:05.111Z,57.55
2023-01-05T08:16:34.073Z,57.47
2023-01-05T08:19:04.201Z,57.13
2023-01-05T08:21:34.232Z,57.67
2023-01-05T08:24:02.302Z,58.55
2023-01-05T08:26:30.134Z,57.97
2023-01-05T08:28:58.286Z,57.53
2023-01-05T08:31:29.851Z,57.61
2023-01-05T08:34:02.489Z,58.67
2023-01-05T08:36:31.650Z,58.07
2023-01-05T08:39:01.630Z,57.76
2023-01-05T08:41:35.760Z,57.49
2023-01-05T08:44:13.363Z,58.02
2023-01-05T08:46:41.185Z,58.13
2023-01-05T08:49:09.865Z,57.81
2023-01-05T08:51:38.485Z,57.76
2023-01-05T08:54:06.377Z,57.38
2023-01-05T08:56:38.545Z,57.17
2023-01-05T08:59:07.294Z,57.54
2023-01-05T09:01:36.905Z,57.18
2023-01-05T09:04:05.103Z,56.81
2023-01-05T09:06:32.847Z,56.57
2023-01-05T09:09:00.615Z,56.38
2023-01-05T09:11:28.605Z,55.84
2023-01-05T09:14:00.225Z,55.36
2023-01-05T09:17:05.100Z,55.64
2023-01-05T09:19:20.021Z,55.04
2023-01-05T09:21:47.865Z,54.81
2023-01-05T09:24:15.830Z,54.48
2023-01-05T09:26:48.323Z,54.14
2023-01-05T09:29:18.030Z,54.15
2023-01-05T09:31:45.944Z,53.88
2023-01-05T09:34:14.027Z,53.76
2023-01-05T09:36:42.957Z,53.52
2023-01-05T09:39:10.971Z,54.48
2023-01-05T09:41:59.065Z,53.92
2023-01-05T10:11:36.856Z,53.48
2023-01-05T10:14:16.214Z,53.30
2023-01-05T10:16:45.730Z,52.95
2023-01-05T10:19:20.461Z,52.79
2023-01-05T10:22:15.961Z,52.43
2023-01-05T10:25:00.178Z,52.21
2023-01-05T10:27:33.396Z,52.37
2023-01-05T10:30:21.823Z,52.18
2023-01-05T10:33:25.565Z,52.05
2023-01-05T10:36:28.044Z,52.30
2023-01-05T10:44:04.951Z,52.19
2023-01-05T10:46:40.244Z,51.79
2023-01-05T10:49:21.085Z,51.43
2023-01-05T10:51:56.266Z,51.29
2023-01-05T10:54:50.938Z,51.09
2023-01-05T10:57:35.931Z,51.19
2023-01-05T11:00:20.252Z,51.03
2023-01-05T11:03:16.783Z,50.65
2023-01-05T11:05:48.178Z,50.99
2023-01-05T11:08:18.986Z,50.63
2023-01-05T11:11:00.540Z,50.58
2023-01-05T11:13:39.581Z,50.52
2023-01-05T11:16:24.050Z,50.66
2023-01-05T11:19:07.729Z,50.63
2023-01-05T11:21:39.410Z,51.03
2023-01-05T11:24:32.847Z,50.83
2023-01-05T11:27:24.123Z,50.58
2023-01-05T11:30:14.885Z,50.57
2023-01-05T11:32:44.196Z,50.54
2023-01-05T11:35:36.432Z,50.27
2023-01-05T11:38:04.401Z,49.97
2023-01-05T11:40:35.940Z,50.00
2023-01-05T11:43:12.056Z,49.86
2023-01-05T11:45:53.241Z,50.06
2023-01-05T11:48:26.127Z,50.25
2023-01-05T11:50:56.605Z,50.74
2023-01-05T11:53:33.011Z,51.42
2023-01-05T11:56:07.592Z,51.09
2023-01-05T11:58:46.307Z,51.39
2023-01-05T12:01:50.487Z,50.73
2023-01-05T12:04:49.035Z,51.92
2023-01-05T12:07:36.373Z,51.33
2023-01-05T12:10:55.473Z,51.74
2023-01-05T12:13:53.209Z,51.44
2023-01-05T12:16:49.441Z,51.62
2023-01-05T12:19:46.218Z,51.14
2023-01-05T12:22:13.563Z,51.90
2023-01-05T12:24:49.852Z,51.87
2023-01-05T12:27:52.310Z,51.63
2023-01-05T12:33:02.998Z,51.61
2023-01-05T12:34:08.504Z,52.08
2023-01-05T12:37:26.087Z,52.20
2023-01-05T12:39:56.161Z,52.45
2023-01-05T12:43:12.955Z,51.73
2023-01-05T12:46:29.677Z,52.11
2023-01-05T12:49:06.146Z,52.14
2023-01-05T12:51:48.945Z,51.77
2023-01-05T12:54:38.129Z,51.70
2023-01-05T12:57:18.797Z,51.33
2023-01-05T13:00:04.949Z,51.03
2023-01-05T13:02:37.129Z,51.30
2023-01-05T13:05:27.872Z,50.91
2023-01-05T13:08:15.891Z,50.99
2023-01-05T13:11:02.039Z,51.32
2023-01-05T13:13:51.261Z,51.30
2023-01-05T13:16:40.705Z,51.09
2023-01-05T13:19:28.175Z,51.05
2023-01-05T13:21:57.559Z,51.72
2023-01-05T13:24:50.258Z,51.67
2023-01-05T13:27:18.246Z,51.18
2023-01-05T13:29:54.287Z,50.73
2023-01-05T13:32:42.889Z,50.92
2023-01-05T13:35:27.418Z,50.52
2023-01-05T13:38:14.872Z,50.30
2023-01-05T13:40:51.602Z,50.38
2023-01-05T13:43:49.743Z,50.00
2023-01-05T13:46:31.389Z,49.71
2023-01-05T13:49:35.831Z,49.61
2023-01-05T13:53:00.985Z,49.30
2023-01-05T13:55:30.056Z,49.51
2023-01-05T13:57:58.349Z,49.11
2023-01-05T14:00:32.689Z,49.25
2023-01-05T14:03:13.808Z,49.44
2023-01-05T14:06:00.747Z,49.76
2023-01-05T14:08:34.446Z,49.69
2023-01-05T14:11:19.713Z,49.51
2023-01-05T14:13:59.835Z,49.58
2023-01-05T14:16:37.389Z,49.41
2023-01-05T14:19:32.910Z,49.77
2023-01-05T14:22:19.547Z,49.58
2023-01-05T14:24:50.132Z,49.90
2023-01-05T14:27:23.517Z,49.84
2023-01-05T14:29:53.711Z,49.98
2023-01-05T14:32:34.038Z,50.24
2023-01-05T14:35:35.847Z,49.76
2023-01-05T14:38:22.563Z,49.90
2023-01-05T14:40:56.091Z,49.56
2023-01-05T14:43:34.450Z,49.54
2023-01-05T14:46:14.824Z,49.61
2023-01-05T14:49:06.557Z,49.60
2023-01-05T14:51:35.593Z,49.42
2023-01-05T14:54:05.519Z,49.29
2023-01-05T14:56:36.540Z,49.27
2023-01-05T14:59:25.334Z,49.47
2023-01-05T15:01:58.205Z,49.09
2023-01-05T15:04:38.876Z,49.39
2023-01-05T15:07:47.726Z,49.15
2023-01-05T15:10:55.592Z,49.28
2023-01-05T15:14:26.551Z,48.93
2023-01-05T15:17:31.881Z,49.21
2023-01-05T15:20:48.804Z,49.03
2023-01-05T15:26:32.524Z,49.17
2023-01-05T15:29:27.366Z,49.32
2023-01-05T15:32:10.753Z,49.18
2023-01-05T15:34:45.717Z,49.17
2023-01-05T15:37:52.206Z,49.28
2023-01-05T15:40:22.725Z,49.17
2023-01-05T15:42:54.493Z,49.29
2023-01-05T15:45:39.327Z,49.16
2023-01-05T15:48:12.266Z,49.30
2023-01-05T15:50:52.168Z,49.44
2023-01-05T15:53:30.237Z,49.08
2023-01-05T15:55:59.613Z,49.05
2023-01-05T15:58:43.310Z,49.14
2023-01-05T16:01:14.449Z,49.23
2023-01-05T16:03:45.257Z,49.10
2023-01-05T16:06:27.959Z,49.05
2023-01-05T16:09:01.110Z,48.99
2023-01-05T16:11:44.742Z,49.50
2023-01-05T16:14:40.924Z,50.20
2023-01-05T16:17:18.465Z,49.61
2023-01-05T16:19:50.772Z,49.49
2023-01-05T16:22:28.932Z,49.29
2023-01-05T16:25:25.187Z,49.38
2023-01-05T16:27:59.037Z,49.49
2023-01-05T16:30:34.310Z,49.21
2023-01-05T16:33:34.413Z,49.33
2023-01-05T16:36:22.115Z,49.21
2023-01-05T16:38:49.904Z,49.13
2023-01-05T16:41:26.458Z,49.60
2023-01-05T16:44:03.475Z,49.29
2023-01-05T16:46:40.829Z,49.35
2023-01-05T16:49:43.705Z,49.29
2023-01-05T16:52:23.804Z,49.28
2023-01-05T16:55:35.456Z,49.56
2023-01-05T16:58:26.280Z,49.64
2023-01-05T17:00:53.913Z,49.60
2023-01-05T17:03:32.429Z,49.59
2023-01-05T17:06:01.109Z,49.49
2023-01-05T17:08:31.857Z,49.53
2023-01-05T17:11:01.698Z,49.40
2023-01-05T17:13:44.483Z,49.27
2023-01-05T17:16:13.932Z,49.25
2023-01-05T17:18:41.724Z,49.06
2023-01-05T17:21:16.421Z,49.12
2023-01-05T17:23:51.489Z,49.21
2023-01-05T17:26:27.428Z,48.79
2023-01-05T17:29:00.546Z,49.07
2023-01-05T17:31:28.441Z,49.06
2023-01-05T17:33:56.047Z,49.16
2023-01-05T17:36:31.747Z,48.98
2023-01-05T17:39:01.009Z,49.05
2023-01-05T17:41:28.690Z,48.98
2023-01-05T17:43:56.363Z,48.89
2023-01-05T17:46:36.222Z,48.99
2023-01-05T17:49:03.921Z,49.00
2023-01-05T17:51:31.485Z,49.23
2023-01-05T17:53:59.840Z,49.19
2023-01-05T17:56:27.383Z,49.20
2023-01-05T17:58:55.165Z,49.29
2023-01-05T18:01:23.074Z,49.40
2023-01-05T18:03:50.654Z,49.50
2023-01-05T18:06:18.269Z,49.47
2023-01-05T18:08:45.747Z,49.53
2023-01-05T18:11:14.267Z,49.71
2023-01-05T18:16:12.368Z,49.69
2023-01-05T18:18:39.919Z,49.62
2023-01-05T18:21:07.957Z,49.76
2023-01-05T18:23:35.547Z,49.98
2023-01-05T18:26:09.849Z,49.81
2023-01-05T18:28:38.461Z,50.11
2023-01-05T18:31:11.829Z,50.01
2023-01-05T18:33:39.321Z,50.16
2023-01-05T18:36:10.003Z,50.29
2023-01-05T18:38:37.707Z,50.17
2023-01-05T18:41:06.494Z,50.27
2023-01-05T18:43:35.195Z,50.29
2023-01-05T18:46:03.550Z,50.28
2023-01-05T18:48:31.482Z,50.44
2023-01-05T18:50:59.103Z,50.44
2023-01-05T18:53:26.645Z,50.62
2023-01-05T18:55:54.395Z,50.60
2023-01-05T18:58:22.077Z,50.81
2023-01-05T19:00:49.694Z,51.03
2023-01-05T19:03:17.221Z,50.76
2023-01-05T19:05:44.823Z,51.12
2023-01-05T19:08:13.749Z,51.02
2023-01-05T19:10:41.888Z,51.24
2023-01-05T19:13:09.696Z,51.20
2023-01-05T19:15:38.381Z,51.29
2023-01-05T19:18:06.580Z,51.31
2023-01-05T19:20:34.076Z,51.32
2023-01-05T19:23:01.650Z,51.12
2023-01-05T19:25:30.384Z,51.46
2023-01-05T19:28:01.430Z,51.32
2023-01-05T19:30:30.541Z,51.66
2023-01-05T19:32:58.057Z,51.49
2023-01-05T19:35:25.582Z,51.51
2023-01-05T19:37:53.063Z,51.80
2023-01-05T19:40:20.565Z,51.72
2023-01-05T19:42:48.268Z,51.61
2023-01-05T19:45:15.770Z,51.78
2023-01-05T19:47:43.365Z,51.72
2023-01-05T19:50:12.447Z,52.10
2023-01-05T19:52:40.161Z,51.90
2023-01-05T19:55:10.263Z,52.36
2023-01-05T19:57:37.954Z,52.30
2023-01-05T20:00:07.330Z,52.29
2023-01-05T20:02:41.921Z,52.43
2023-01-05T20:05:09.885Z,52.55
2023-01-05T20:07:41.410Z,52.30
2023-01-05T20:10:09.428Z,52.33
2023-01-05T20:12:36.932Z,52.28
2023-01-05T20:15:04.961Z,52.37
2023-01-05T20:17:33.094Z,52.47
2023-01-05T20:20:00.560Z,52.44
2023-01-05T20:22:28.131Z,52.51
2023-01-05T20:24:55.634Z,52.57
2023-01-05T20:27:23.140Z,52.76
2023-01-05T20:29:50.636Z,52.58
2023-01-05T20:32:22.998Z,52.82
2023-01-05T20:34:59.481Z,52.84
2023-01-05T20:37:32.415Z,53.08
2023-01-05T20:40:02.113Z,53.30
2023-01-05T20:42:30.611Z,53.21
2023-01-05T20:44:58.321Z,53.21
2023-01-05T20:47:26.248Z,53.39
2023-01-05T20:49:54.611Z,53.25
2023-01-05T20:52:22.148Z,53.39
2023-01-05T20:54:49.841Z,53.45
2023-01-05T20:57:17.430Z,53.30
2023-01-05T20:59:45.076Z,53.34
2023-01-05T21:02:23.078Z,53.39
2023-01-05T21:04:52.963Z,53.36
2023-01-05T21:07:21.215Z,53.43
2023-01-05T21:09:51.392Z,53.30
2023-01-05T21:12:20.397Z,53.30
2023-01-05T21:14:47.946Z,53.39
2023-01-05T21:17:15.475Z,53.47
2023-01-05T21:19:42.994Z,53.42
2023-01-05T21:22:10.517Z,53.53
2023-01-05T21:24:37.994Z,53.46
2023-01-05T21:27:05.504Z,53.51
2023-01-05T21:29:33.287Z,53.48
2023-01-05T21:32:00.782Z,53.61
2023-01-05T21:34:28.324Z,53.65
2023-01-05T21:36:56.048Z,53.68
2023-01-05T21:39:25.803Z,53.66
2023-01-05T21:42:12.937Z,53.59
2023-01-05T21:44:41.173Z,53.40
2023-01-05T21:47:09.449Z,53.51
2023-01-05T21:49:36.944Z,53.86
2023-01-05T21:52:24.243Z,53.85
2023-01-05T21:55:10.365Z,53.80
2023-01-05T21:57:37.972Z,54.03
2023-01-05T22:00:06.870Z,54.29
2023-01-05T22:02:34.487Z,54.37
2023-01-05T22:05:02.009Z,54.48
2023-01-05T22:07:29.536Z,54.67
2023-01-05T22:09:57.075Z,54.67
2023-01-05T22:12:24.554Z,54.72
2023-01-05T22:14:52.038Z,54.75
2023-01-05T22:17:19.525Z,54.61
2023-01-05T22:19:47.031Z,55.25
2023-01-05T22:22:14.704Z,55.20
2023-01-05T22:24:42.194Z,54.98
2023-01-05T22:27:09.721Z,54.90
2023-01-05T22:29:37.212Z,55.46
2023-01-05T22:32:05.695Z,54.99
2023-01-05T22:34:33.224Z,55.19
2023-01-05T22:37:00.764Z,55.03
2023-01-05T22:39:28.276Z,55.20
2023-01-05T22:41:55.783Z,55.00
2023-01-05T22:44:23.287Z,55.02
2023-01-05T22:46:50.803Z,54.96
2023-01-05T22:49:18.277Z,54.97
2023-01-05T22:51:46.287Z,55.03
2023-01-05T22:54:14.207Z,55.00
2023-01-05T22:56:41.774Z,55.16
2023-01-05T22:59:09.260Z,55.13
2023-01-05T23:01:44.793Z,55.10
2023-01-05T23:04:13.112Z,55.09
2023-01-05T23:06:41.911Z,55.18
2023-01-05T23:09:16.246Z,55.15
2023-01-05T23:11:46.349Z,54.88
2023-01-05T23:14:14.961Z,55.21
2023-01-05T23:16:42.575Z,55.12
2023-01-05T23:19:10.431Z,55.10
2023-01-05T23:21:38.536Z,55.33
2023-01-05T23:24:06.458Z,55.38
2023-01-05T23:26:34.243Z,55.21
2023-01-05T23:29:01.848Z,55.69
2023-01-05T23:31:29.374Z,55.84
2023-01-05T23:33:57.587Z,55.78
2023-01-05T23:36:25.369Z,55.58
2023-01-05T23:38:52.985Z,55.59
2023-01-05T23:41:20.640Z,55.77
2023-01-05T23:43:48.270Z,55.83
2023-01-05T23:46:22.895Z,55.48
2023-01-05T23:48:51.672Z,55.57
2023-01-05T23:51:19.760Z,55.48
2023-01-05T23:53:50.739Z,55.69
2023-01-05T23:56:23.745Z,55.48
2023-01-05T23:59:02.768Z,55.31
